עמוד ראשי
METAR-TAF:

METAR-TAF

שדות תעופה :

Shell Mera, אקוודור

קו רוחב: 01-30-19S, קו אורך: 078-03-46W, גובה: 1056מטר

תצפית מזג אוויר נוכחית

הדו"ח נערך לפני 2 שעות ו 12דקות, בשעה 23:00 UTC
רוח 3קשר מכיוון צפון/צפון-מערב
טמפרטורת 21 צלסיוס
לחות 94%
לחץ 1016 hPa
ראות 10 קילומטר או יותר
עננים פזורים בגובה 500רגל
עננים בינוניים בגובה 2300רגל
מעונן בגובה 10000רגל

METAR: SESM 202300Z 33003KT 9999 SCT005 BKN023 OVC100 21/20 Q1016 RMK A3001

זמן: 20:12 (01:12 UTC)


TAF: חסר

תצפיות ותחזיות מזג אוויר לגבי יותר מ- 4,000 שדות תעופה ברחבי העולם. דוחות METAR ו- TAF.

התחנות הזמינות מסומנות בנקודות צהובות ואדומות על גבי המפה.

העבר את העכבר לנקודה הצבעונית על מנת לראות את שם התחנה.

לאחר מכן, לחץ כדי לראות את תוכן ואת תחזיות מזג האוויר.

כדי לשנות את המפה: לחץ על הכפתורים הירוקים עם הפלוס השחור כדי להתקרב; על הכפתור הירוק עם המקף כדי להתרחק; או בחיצים הירוקים למפות סמוכות.


METAR-TAF: